createdAt,value
2023-02-07T00:00:52.712Z,101832.22
2023-02-07T00:01:56.248Z,101835.72
2023-02-07T00:03:00.168Z,101836.09
2023-02-07T00:04:05.195Z,101840.44
2023-02-07T00:05:09.026Z,101841.72
2023-02-07T00:06:22.569Z,101836.19
2023-02-07T00:07:31.150Z,101836.63
2023-02-07T00:08:37.188Z,101833.66
2023-02-07T00:09:47.089Z,101833.03
2023-02-07T00:10:53.497Z,101833.41
2023-02-07T00:12:00.768Z,101831.91
2023-02-07T00:13:13.218Z,101833.66
2023-02-07T00:14:26.550Z,101831.66
2023-02-07T00:15:31.682Z,101840.78
2023-02-07T00:16:34.951Z,101837.75
2023-02-07T00:17:38.510Z,101839.66
2023-02-07T00:18:43.629Z,101833.03
2023-02-07T00:19:53.794Z,101836.81
2023-02-07T00:21:05.290Z,101837.56
2023-02-07T00:22:11.602Z,101841.25
2023-02-07T00:23:17.409Z,101833.16
2023-02-07T00:24:22.898Z,101836.09
2023-02-07T00:25:26.883Z,101843.97
2023-02-07T00:26:31.733Z,101842.81
2023-02-07T00:27:35.745Z,101840.25
2023-02-07T00:28:41.565Z,101839.75
2023-02-07T00:29:44.845Z,101841.97
2023-02-07T00:30:56.854Z,101845.06
2023-02-07T00:32:07.348Z,101847.75
2023-02-07T00:33:15.269Z,101841.16
2023-02-07T00:34:23.255Z,101845.75
2023-02-07T00:35:27.140Z,101847.88
2023-02-07T00:36:34.167Z,101847.88
2023-02-07T00:37:39.877Z,101850.72
2023-02-07T00:38:48.466Z,101854.22
2023-02-07T00:39:51.906Z,101837.88
2023-02-07T00:40:57.377Z,101847.53
2023-02-07T00:42:03.054Z,101848.94
2023-02-07T00:43:07.291Z,101846.38
2023-02-07T00:44:15.098Z,101854.06
2023-02-07T00:45:20.411Z,101848.03
2023-02-07T00:46:25.366Z,101849.28
2023-02-07T00:47:31.991Z,101858.47
2023-02-07T00:48:42.121Z,101849.16
2023-02-07T00:49:47.714Z,101849.28
2023-02-07T00:50:52.812Z,101846.09
2023-02-07T00:51:55.854Z,101851.44
2023-02-07T00:52:58.841Z,101849.88
2023-02-07T00:54:07.820Z,101851.63
2023-02-07T00:55:12.343Z,101846.81
2023-02-07T00:56:19.909Z,101848.63
2023-02-07T00:57:24.698Z,101849.88
2023-02-07T00:58:32.125Z,101845.63
2023-02-07T00:59:37.203Z,101852.25
2023-02-07T01:00:42.808Z,101842.00
2023-02-07T01:01:46.117Z,101849.53
2023-02-07T01:02:53.822Z,101843.47
2023-02-07T01:03:57.881Z,101850.00
2023-02-07T01:05:04.521Z,101854.84
2023-02-07T01:06:09.890Z,101856.25
2023-02-07T01:07:13.901Z,101859.25
2023-02-07T01:08:23.711Z,101870.44
2023-02-07T01:09:28.186Z,101868.91
2023-02-07T01:10:32.256Z,101867.91
2023-02-07T01:11:36.219Z,101871.44
2023-02-07T01:12:42.995Z,101871.84
2023-02-07T01:13:49.059Z,101870.72
2023-02-07T01:14:54.357Z,101862.00
2023-02-07T01:15:58.964Z,101868.94
2023-02-07T01:17:02.116Z,101866.13
2023-02-07T01:18:05.823Z,101863.47
2023-02-07T01:19:11.906Z,101864.31
2023-02-07T01:20:20.796Z,101872.38
2023-02-07T01:21:32.175Z,101872.84
2023-02-07T01:22:45.456Z,101880.69
2023-02-07T01:23:49.536Z,101868.88
2023-02-07T01:24:57.480Z,101887.34
2023-02-07T01:26:00.885Z,101881.56
2023-02-07T01:27:06.303Z,101876.50
2023-02-07T01:28:14.687Z,101875.25
2023-02-07T01:29:18.933Z,101869.53
2023-02-07T01:30:22.978Z,101875.31
2023-02-07T01:31:27.838Z,101872.81
2023-02-07T01:32:37.168Z,101874.78
2023-02-07T01:33:47.383Z,101871.94
2023-02-07T01:34:54.403Z,101872.44
2023-02-07T01:36:00.363Z,101876.53
2023-02-07T01:37:06.282Z,101878.19
2023-02-07T01:38:10.522Z,101877.03
2023-02-07T01:39:17.307Z,101883.81
2023-02-07T01:40:23.917Z,101889.81
2023-02-07T01:41:28.845Z,101886.41
2023-02-07T01:42:34.289Z,101891.16
2023-02-07T01:44:13.438Z,101894.91
2023-02-07T01:45:39.461Z,101885.63
2023-02-07T01:46:44.890Z,101887.28
2023-02-07T01:47:50.892Z,101887.69
2023-02-07T01:48:57.976Z,101886.03
2023-02-07T01:50:03.547Z,101885.63
2023-02-07T01:51:08.826Z,101883.97
2023-02-07T01:52:18.437Z,101888.09
2023-02-07T01:53:26.774Z,101894.16
2023-02-07T01:54:33.780Z,101889.06
2023-02-07T01:55:48.182Z,101887.84
2023-02-07T01:56:59.874Z,101892.69
2023-02-07T01:58:07.643Z,101904.31
2023-02-07T01:59:13.184Z,101888.50
2023-02-07T02:06:22.397Z,101909.06
2023-02-07T02:07:42.594Z,101909.97
2023-02-07T02:08:59.800Z,101916.78
2023-02-07T02:10:05.771Z,101916.97
2023-02-07T02:11:11.693Z,101913.09
2023-02-07T02:12:40.157Z,101914.41
2023-02-07T02:14:19.808Z,101916.13
2023-02-07T02:16:20.364Z,101916.28
2023-02-07T02:17:42.643Z,101915.66
2023-02-07T02:19:04.601Z,101924.66
2023-02-07T02:20:45.003Z,101918.91
2023-02-07T02:22:26.012Z,101920.88
2023-02-07T02:23:52.589Z,101918.91
2023-02-07T02:24:56.582Z,101914.47
2023-02-07T02:26:38.081Z,101925.97
2023-02-07T02:28:12.481Z,101915.31
2023-02-07T02:29:39.460Z,101920.22
2023-02-07T02:31:19.013Z,101917.25
2023-02-07T02:32:48.862Z,101918.75
2023-02-07T02:34:01.534Z,101917.19
2023-02-07T02:35:14.204Z,101919.16
2023-02-07T02:36:51.594Z,101921.38
2023-02-07T02:38:01.828Z,101925.50
2023-02-07T02:39:28.758Z,101923.00
2023-02-07T02:40:57.444Z,101928.66
2023-02-07T02:42:15.090Z,101932.53
2023-02-07T02:43:38.778Z,101932.19
2023-02-07T02:44:54.401Z,101939.88
2023-02-07T02:46:26.814Z,101947.13
2023-02-07T02:47:38.088Z,101934.16
2023-02-07T02:48:45.409Z,101939.91
2023-02-07T02:49:53.013Z,101940.22
2023-02-07T02:50:59.234Z,101935.88
2023-02-07T02:52:04.678Z,101935.41
2023-02-07T02:53:10.248Z,101941.88
2023-02-07T02:54:28.923Z,101938.09
2023-02-07T02:56:22.540Z,101945.06
2023-02-07T02:57:41.448Z,101947.59
2023-02-07T02:59:00.857Z,101945.66
2023-02-07T03:00:24.731Z,101951.69
2023-02-07T03:02:10.390Z,101954.81
2023-02-07T03:03:27.937Z,101947.19
2023-02-07T03:05:14.266Z,101941.88
2023-02-07T03:06:33.877Z,101954.66
2023-02-07T03:07:52.313Z,101946.47
2023-02-07T03:09:24.999Z,101950.91
2023-02-07T03:10:36.564Z,101954.50
2023-02-07T03:11:58.137Z,101955.97
2023-02-07T03:13:03.918Z,101961.53
2023-02-07T03:14:17.934Z,101962.03
2023-02-07T03:15:39.461Z,101958.63
2023-02-07T03:16:53.338Z,101960.13
2023-02-07T03:18:12.272Z,101961.78
2023-02-07T03:19:27.011Z,101968.09
2023-02-07T03:20:38.473Z,101968.28
2023-02-07T03:21:49.033Z,101978.25
2023-02-07T03:23:01.030Z,101968.00
2023-02-07T03:24:15.690Z,101966.94
2023-02-07T03:25:22.995Z,101970.56
2023-02-07T03:26:27.890Z,101972.88
2023-02-07T03:27:35.046Z,101970.00
2023-02-07T03:28:42.043Z,101973.09
2023-02-07T03:29:50.718Z,101982.38
2023-02-07T03:30:58.440Z,101984.75
2023-02-07T03:32:05.864Z,101989.44
2023-02-07T03:33:14.894Z,101993.19
2023-02-07T03:34:25.223Z,102006.78
2023-02-07T03:35:36.460Z,102001.03
2023-02-07T03:37:11.419Z,102013.13
2023-02-07T03:38:28.840Z,102016.44
2023-02-07T03:39:36.847Z,102015.16
2023-02-07T03:40:49.635Z,102009.91
2023-02-07T03:42:25.023Z,102014.53
2023-02-07T03:43:32.581Z,102017.25
2023-02-07T03:44:37.686Z,102029.53
2023-02-07T03:45:43.403Z,102028.13
2023-02-07T03:46:51.215Z,102031.25
2023-02-07T03:47:55.867Z,102030.78
2023-02-07T03:49:06.059Z,102039.31
2023-02-07T03:50:10.269Z,102035.88
2023-02-07T03:51:16.559Z,102030.53
2023-02-07T03:52:25.038Z,102033.72
2023-02-07T03:53:30.173Z,102039.22
2023-02-07T03:54:34.717Z,102045.72
2023-02-07T03:55:39.851Z,102038.97
2023-02-07T03:56:43.187Z,102042.59
2023-02-07T03:57:47.772Z,102048.34
2023-02-07T03:58:50.993Z,102053.50
2023-02-07T03:59:55.845Z,102054.91
2023-02-07T04:01:05.077Z,102059.72
2023-02-07T04:02:10.085Z,102056.03
2023-02-07T04:03:17.056Z,102052.41
2023-02-07T04:04:21.245Z,102057.09
2023-02-07T04:05:26.852Z,102056.19
2023-02-07T04:06:30.816Z,102060.22
2023-02-07T04:07:34.310Z,102058.06
2023-02-07T04:08:37.987Z,102049.22
2023-02-07T04:09:43.622Z,102059.69
2023-02-07T04:10:56.742Z,102058.97
2023-02-07T04:12:07.656Z,102056.03
2023-02-07T04:13:13.351Z,102064.91
2023-02-07T04:14:24.324Z,102062.84
2023-02-07T04:15:28.714Z,102056.59
2023-02-07T04:16:34.136Z,102059.91
2023-02-07T04:17:47.264Z,102066.63
2023-02-07T04:18:51.288Z,102058.81
2023-02-07T04:19:58.350Z,102060.69
2023-02-07T04:21:05.597Z,102066.13
2023-02-07T04:22:11.337Z,102057.00
2023-02-07T04:23:15.022Z,102067.31
2023-02-07T04:24:18.348Z,102070.13
2023-02-07T04:25:21.661Z,102059.19
2023-02-07T04:26:29.774Z,102073.09
2023-02-07T04:27:36.496Z,102073.09
2023-02-07T04:28:39.943Z,102075.41
2023-02-07T04:29:44.688Z,102068.78
2023-02-07T04:30:53.736Z,102080.16
2023-02-07T04:32:09.601Z,102080.69
2023-02-07T04:33:15.080Z,102086.16
2023-02-07T04:34:21.130Z,102095.94
2023-02-07T04:35:24.637Z,102088.28
2023-02-07T04:36:40.235Z,102101.03
2023-02-07T04:37:47.537Z,102092.72
2023-02-07T04:38:59.266Z,102097.47
2023-02-07T04:40:06.722Z,102097.81
2023-02-07T04:41:11.973Z,102102.19
2023-02-07T04:42:15.539Z,102105.00
2023-02-07T04:43:26.345Z,102100.81
2023-02-07T04:44:52.351Z,102100.16
2023-02-07T04:45:59.758Z,102103.28
2023-02-07T04:47:05.563Z,102111.97
2023-02-07T04:48:10.170Z,102123.94
2023-02-07T04:49:18.184Z,102120.25
2023-02-07T04:50:24.769Z,102109.63
2023-02-07T04:51:40.169Z,102115.00
2023-02-07T04:56:34.823Z,102122.59
2023-02-07T04:57:41.798Z,102132.34
2023-02-07T04:58:48.713Z,102129.25
2023-02-07T05:00:02.535Z,102133.47
2023-02-07T05:05:48.924Z,102128.97
2023-02-07T05:06:59.771Z,102143.50
2023-02-07T05:08:07.191Z,102138.72
2023-02-07T05:09:15.613Z,102144.31
2023-02-07T05:10:35.638Z,102142.41
2023-02-07T05:11:42.178Z,102144.09
2023-02-07T05:12:59.977Z,102144.31
2023-02-07T05:14:12.102Z,102147.06
2023-02-07T05:15:30.972Z,102143.38
2023-02-07T05:16:38.494Z,102158.47
2023-02-07T05:17:46.942Z,102157.50
2023-02-07T06:29:24.818Z,102225.16
2023-02-07T06:30:58.836Z,102235.78
2023-02-07T06:32:11.580Z,102241.19
2023-02-07T06:33:22.084Z,102235.50
2023-02-07T06:56:39.855Z,102275.91
2023-02-07T06:57:44.441Z,102283.38
2023-02-07T06:58:59.077Z,102275.44
2023-02-07T07:00:19.082Z,102271.94
2023-02-07T07:01:26.334Z,102281.41
2023-02-07T07:02:32.598Z,102278.03
2023-02-07T07:03:40.203Z,102278.09
2023-02-07T07:04:44.162Z,102285.78
2023-02-07T14:44:07.978Z,102470.03
2023-02-07T14:45:23.659Z,102473.00
2023-02-07T14:46:35.203Z,102464.28
2023-02-07T14:47:47.713Z,102469.13
2023-02-07T14:49:03.078Z,102477.09
2023-02-07T14:50:08.059Z,102480.06
2023-02-07T14:51:42.999Z,102480.31
2023-02-07T14:52:52.593Z,102479.34
2023-02-07T14:54:04.767Z,102480.63
2023-02-07T14:55:22.135Z,102481.31
2023-02-07T14:56:48.486Z,102477.91
2023-02-07T14:58:02.710Z,102480.00
2023-02-07T14:59:15.789Z,102475.78
2023-02-07T15:00:51.954Z,102472.16
2023-02-07T15:02:33.941Z,102480.72
2023-02-07T15:03:45.298Z,102472.28
2023-02-07T15:04:52.211Z,102475.44
2023-02-07T15:06:06.754Z,102482.84
2023-02-07T15:07:15.645Z,102477.91
2023-02-07T15:08:26.237Z,102484.59
2023-02-07T15:09:36.236Z,102478.38
2023-02-07T15:10:55.861Z,102482.25
2023-02-07T15:12:18.658Z,102472.69
2023-02-07T15:13:39.740Z,102482.53
2023-02-07T15:14:46.000Z,102486.22
2023-02-07T15:16:03.924Z,102477.66
2023-02-07T15:17:12.181Z,102478.59
2023-02-07T15:18:20.397Z,102486.00
2023-02-07T15:19:38.852Z,102485.78
2023-02-07T15:20:51.239Z,102489.66
2023-02-07T15:22:14.210Z,102487.06
2023-02-07T15:23:24.269Z,102493.88
2023-02-07T15:27:11.878Z,102502.56
2023-02-07T15:28:32.860Z,102497.88
2023-02-07T15:29:42.982Z,102502.50
2023-02-07T15:33:13.588Z,102508.41
2023-02-07T15:34:22.841Z,102503.47
2023-02-07T15:35:29.580Z,102507.84
2023-02-07T15:36:42.486Z,102518.53
2023-02-07T15:37:49.452Z,102515.16
2023-02-07T15:39:07.461Z,102515.34
2023-02-07T15:40:39.551Z,102504.78
2023-02-07T15:41:46.755Z,102510.06
2023-02-07T15:43:03.876Z,102516.56
2023-02-07T15:44:32.954Z,102509.13
2023-02-07T15:45:36.731Z,102501.94
2023-02-07T15:47:21.093Z,102509.84
2023-02-07T15:48:28.419Z,102503.50
2023-02-07T15:50:09.600Z,102505.97
2023-02-07T15:51:27.206Z,102504.44
2023-02-07T15:52:45.435Z,102503.97
2023-02-07T15:54:02.027Z,102497.38
2023-02-07T15:55:30.309Z,102497.13
2023-02-07T15:56:52.691Z,102498.03
2023-02-07T16:01:43.789Z,102494.13
2023-02-07T16:03:02.238Z,102504.75
2023-02-07T16:04:10.983Z,102502.25
2023-02-07T16:05:28.054Z,102505.88
2023-02-07T16:06:36.876Z,102504.59
2023-02-07T16:07:52.780Z,102504.88
2023-02-07T16:09:09.728Z,102510.66
2023-02-07T16:10:24.889Z,102500.25
2023-02-07T16:11:44.820Z,102506.84
2023-02-07T16:13:14.864Z,102520.06
2023-02-07T16:14:26.065Z,102519.72
2023-02-07T16:15:39.188Z,102524.38
2023-02-07T16:16:58.118Z,102518.75
2023-02-07T16:18:45.007Z,102510.53
2023-02-07T16:20:17.956Z,102514.13
2023-02-07T16:21:37.604Z,102510.66
2023-02-07T16:22:48.511Z,102524.75
2023-02-07T16:24:07.128Z,102519.94
2023-02-07T16:25:21.473Z,102522.06
2023-02-07T16:26:41.604Z,102523.28
2023-02-07T16:27:51.820Z,102527.28
2023-02-07T16:29:09.152Z,102528.00
2023-02-07T16:30:26.392Z,102521.91
2023-02-07T16:31:36.040Z,102521.47
2023-02-07T16:32:41.714Z,102519.09
2023-02-07T16:34:01.610Z,102511.78
2023-02-07T16:35:23.285Z,102515.78
2023-02-07T16:36:37.189Z,102510.84
2023-02-07T16:37:46.469Z,102503.78
2023-02-07T16:38:55.469Z,102505.88
2023-02-07T16:40:06.465Z,102493.03
2023-02-07T16:41:39.487Z,102493.41
2023-02-07T16:42:50.629Z,102505.03
2023-02-07T16:49:23.759Z,102517.09
2023-02-07T16:50:29.965Z,102520.94
2023-02-07T16:51:37.901Z,102520.25
2023-02-07T16:52:45.486Z,102515.53
2023-02-07T16:54:06.378Z,102516.19
2023-02-07T16:55:11.809Z,102521.06
2023-02-07T17:01:46.512Z,102525.16
2023-02-07T17:02:54.624Z,102520.56
2023-02-07T17:04:05.666Z,102521.75
2023-02-07T17:05:10.700Z,102510.94
2023-02-07T17:06:16.134Z,102517.25
2023-02-07T17:07:21.272Z,102513.66
2023-02-07T17:08:30.462Z,102508.09
2023-02-07T17:09:38.323Z,102512.94
2023-02-07T17:10:52.900Z,102509.31
2023-02-07T17:12:02.571Z,102503.75
2023-02-07T17:13:08.829Z,102512.47
2023-02-07T17:14:12.029Z,102505.72
2023-02-07T17:15:28.754Z,102510.97
2023-02-07T17:16:40.192Z,102513.69
2023-02-07T17:17:48.268Z,102512.50
2023-02-07T17:18:58.689Z,102515.44
2023-02-07T17:35:11.744Z,102526.78
2023-02-07T17:36:19.863Z,102530.97
2023-02-07T17:37:27.281Z,102533.09
2023-02-07T17:38:33.207Z,102526.84
2023-02-07T17:39:39.156Z,102535.19
2023-02-07T17:40:44.512Z,102535.81
2023-02-07T17:41:55.244Z,102540.84
2023-02-07T17:43:09.333Z,102540.47
2023-02-07T17:44:14.062Z,102542.41
2023-02-07T17:45:17.681Z,102547.94
2023-02-07T17:46:30.594Z,102542.97
2023-02-07T17:47:34.231Z,102543.16
2023-02-07T17:48:37.524Z,102542.16
2023-02-07T17:49:43.225Z,102541.03
2023-02-07T17:50:51.660Z,102537.06
2023-02-07T17:51:54.758Z,102542.25
2023-02-07T17:53:02.612Z,102546.00
2023-02-07T17:54:06.784Z,102546.81
2023-02-07T17:55:15.961Z,102551.13
2023-02-07T17:56:27.688Z,102556.81
2023-02-07T17:57:32.879Z,102553.22
2023-02-07T17:58:38.879Z,102563.13
2023-02-07T17:59:48.878Z,102563.56
2023-02-07T18:00:54.466Z,102557.63
2023-02-07T18:01:58.416Z,102569.72
2023-02-07T18:03:05.111Z,102574.06
2023-02-07T18:04:10.804Z,102573.09
2023-02-07T18:05:20.176Z,102573.38
2023-02-07T18:06:29.912Z,102577.28
2023-02-07T18:07:34.309Z,102584.56
2023-02-07T18:08:38.700Z,102582.69
2023-02-07T18:09:44.302Z,102583.97
2023-02-07T18:10:48.202Z,102585.63
2023-02-07T18:11:51.979Z,102586.47
2023-02-07T18:12:55.638Z,102584.41
2023-02-07T18:14:02.267Z,102593.28
2023-02-07T18:15:11.422Z,102595.66
2023-02-07T18:16:24.573Z,102600.63
2023-02-07T18:17:29.988Z,102606.94
2023-02-07T18:18:40.964Z,102609.16
2023-02-07T18:19:51.831Z,102610.09
2023-02-07T18:21:13.637Z,102606.94
2023-02-07T18:22:25.882Z,102614.91
2023-02-07T18:23:34.010Z,102626.00
2023-02-07T18:24:44.181Z,102621.09
2023-02-07T18:26:15.269Z,102615.66
2023-02-07T18:27:23.623Z,102617.22
2023-02-07T18:28:32.624Z,102627.94
2023-02-07T18:29:47.985Z,102614.28
2023-02-07T18:30:59.516Z,102611.72
2023-02-07T18:32:09.234Z,102606.13
2023-02-07T18:33:19.580Z,102610.28
2023-02-07T18:34:27.605Z,102616.69
2023-02-07T18:35:36.875Z,102614.75
2023-02-07T18:36:43.617Z,102615.63
2023-02-07T18:37:54.949Z,102605.38
2023-02-07T18:39:14.051Z,102599.78
2023-02-07T18:40:24.206Z,102604.81
2023-02-07T18:41:33.835Z,102598.25
2023-02-07T18:42:41.041Z,102607.78
2023-02-07T18:43:48.120Z,102601.00
2023-02-07T18:44:57.496Z,102604.81
2023-02-07T18:46:08.034Z,102607.22
2023-02-07T18:47:18.642Z,102598.28
2023-02-07T18:48:23.603Z,102605.00
2023-02-07T18:49:33.538Z,102597.69
2023-02-07T19:32:36.634Z,102617.25
2023-02-07T19:33:45.692Z,102606.53
2023-02-07T19:34:49.207Z,102616.31
2023-02-07T19:35:57.689Z,102602.66
2023-02-07T19:37:07.785Z,102610.63
